Time;durP1;ratioP1;P1;durP2;ratioP2;P2;SDS_P1;SDS_P2;PMS_P1;PMS_P2;Temp;Humidity;BMP_temperature;BMP_pressure;BME280_temperature;BME280_humidity;BME280_pressure;Samples;Min_cycle;Max_cycle;Signal;HPM_P1;HPM_P2
2022/04/10 00:01:07;;;;;;;16.88;8.15;;;5.50;99.90;;;;;;4913734;29;20048;-73
2022/04/10 00:04:22;;;;;;;12.75;7.68;;;5.40;99.90;;;;;;4933720;29;20058;-72
2022/04/10 00:06:49;;;;;;;12.93;8.43;;;5.30;99.90;;;;;;4911475;29;20502;-71
2022/04/10 00:09:26;;;;;;;13.10;7.43;;;5.30;99.90;;;;;;4919426;29;20113;-72
2022/04/10 00:11:52;;;;;;;13.43;9.13;;;5.20;99.90;;;;;;4939648;29;20047;-71
2022/04/10 00:14:28;;;;;;;15.48;7.20;;;5.10;99.90;;;;;;4918752;29;20050;-72
2022/04/10 00:17:42;;;;;;;12.65;9.23;;;5.10;99.90;;;;;;4906700;29;20127;-71
2022/04/10 00:20:09;;;;;;;11.02;7.20;;;5.00;99.90;;;;;;4915587;29;20048;-75
2022/04/10 00:22:44;;;;;;;11.02;7.28;;;5.00;99.90;;;;;;4913410;29;20400;-74
2022/04/10 00:28:48;;;;;;;13.48;7.60;;;4.90;99.90;;;;;;4914562;29;20476;-68
2022/04/10 00:31:24;;;;;;;11.13;7.32;;;4.90;99.90;;;;;;4897273;29;20079;-69
2022/04/10 00:33:51;;;;;;;9.90;6.25;;;4.90;99.90;;;;;;4915902;29;20127;-73
2022/04/10 00:36:18;;;;;;;13.27;7.95;;;4.80;99.90;;;;;;4925018;29;20051;-70
2022/04/10 00:39:28;;;;;;;11.80;6.10;;;4.80;99.90;;;;;;4912511;29;20060;-73
2022/04/10 00:41:55;;;;;;;46.75;30.80;;;4.70;99.90;;;;;;4918741;29;20476;-72
2022/04/10 00:44:33;;;;;;;24.17;15.20;;;4.60;99.90;;;;;;4914653;29;20044;-71
2022/04/10 00:47:01;;;;;;;20.08;13.38;;;4.60;99.90;;;;;;4914466;29;20044;-73
2022/04/10 00:49:38;;;;;;;19.10;11.48;;;4.60;99.90;;;;;;4908296;29;20060;-72
2022/04/10 00:52:47;;;;;;;16.15;9.68;;;4.50;99.90;;;;;;4912540;29;20488;-72
2022/04/10 00:55:14;;;;;;;10.00;7.07;;;4.50;99.90;;;;;;4915581;29;20277;-71
2022/04/10 00:57:50;;;;;;;11.75;6.75;;;4.50;99.90;;;;;;4916544;29;20488;-72
2022/04/10 01:00:17;;;;;;;14.77;6.93;;;4.50;99.90;;;;;;4929477;29;20048;-72
2022/04/10 01:02:54;;;;;;;12.35;6.22;;;4.40;99.90;;;;;;4918248;29;20064;-71
2022/04/10 01:06:08;;;;;;;10.70;6.63;;;4.40;99.90;;;;;;4921975;29;20048;-72
2022/04/10 01:08:34;;;;;;;10.77;6.35;;;4.40;99.90;;;;;;4916918;29;20087;-71
2022/04/10 01:11:11;;;;;;;11.07;5.63;;;4.40;99.90;;;;;;4908799;29;20043;-72
2022/04/10 01:13:38;;;;;;;12.23;5.60;;;4.30;99.90;;;;;;4917836;29;20060;-70
2022/04/10 01:16:14;;;;;;;12.32;6.05;;;4.20;99.90;;;;;;4923539;29;20389;-72
2022/04/10 01:19:28;;;;;;;9.68;5.47;;;4.20;99.90;;;;;;4927297;29;20590;-72
2022/04/10 01:21:59;;;;;;;8.43;5.60;;;4.10;99.90;;;;;;4924033;29;20060;-74
2022/04/10 01:28:26;;;;;;;9.20;5.75;;;4.10;99.90;;;;;;4918178;29;20107;-72
2022/04/10 01:30:53;;;;;;;7.82;5.03;;;4.00;99.90;;;;;;4922517;29;20060;-72
2022/04/10 01:33:30;;;;;;;10.63;6.45;;;4.00;99.90;;;;;;4932499;29;20055;-72
2022/04/10 01:35:57;;;;;;;12.57;5.85;;;3.90;99.90;;;;;;4909687;29;20056;-72
2022/04/10 01:38:33;;;;;;;7.35;4.60;;;3.90;99.90;;;;;;4926869;29;20052;-72
2022/04/10 01:41:42;;;;;;;8.70;5.35;;;4.00;99.90;;;;;;4916579;29;20480;-72
2022/04/10 01:44:09;;;;;;;12.13;5.95;;;3.90;99.90;;;;;;4907794;29;20056;-72
2022/04/10 01:46:45;;;;;;;9.93;5.40;;;3.80;99.90;;;;;;4899287;29;20407;-72
2022/04/10 01:49:12;;;;;;;11.55;5.95;;;3.80;99.90;;;;;;4916331;29;20052;-72
2022/04/10 01:51:48;;;;;;;9.25;5.13;;;3.70;99.90;;;;;;4914684;29;20492;-72
2022/04/10 01:55:01;;;;;;;8.57;4.45;;;3.70;99.90;;;;;;4916090;29;20071;-73
2022/04/10 01:57:37;;;;;;;8.63;4.90;;;3.70;99.90;;;;;;4916617;29;20393;-72
2022/04/10 02:00:13;;;;;;;8.38;5.03;;;3.60;99.90;;;;;;4915599;29;20056;-72
2022/04/10 02:02:40;;;;;;;10.30;5.65;;;3.50;99.90;;;;;;4913915;29;20067;-72
2022/04/10 02:05:07;;;;;;;8.77;4.80;;;3.50;99.90;;;;;;4883945;29;20455;-72
2022/04/10 02:07:34;;;;;;;7.13;4.70;;;3.50;99.90;;;;;;4921341;29;20064;-72
2022/04/10 02:10:25;;;;;;;10.52;6.30;;;3.40;99.90;;;;;;4916134;29;20243;-72
2022/04/10 02:13:01;;;;;;;10.85;5.63;;;3.40;99.90;;;;;;4916191;29;20056;-72
2022/04/10 02:15:37;;;;;;;8.77;5.40;;;3.30;99.90;;;;;;4915585;29;20496;-72
2022/04/10 02:21:57;;;;;;;10.52;5.30;;;3.30;99.90;;;;;;4917977;29;20499;-73
2022/04/10 02:28:15;;;;;;;9.48;4.40;;;3.20;99.90;;;;;;4916483;29;20277;-71
2022/04/10 02:30:41;;;;;;;9.35;5.80;;;3.20;99.90;;;;;;4915527;29;20630;-72
2022/04/10 02:33:17;;;;;;;9.40;6.38;;;3.10;99.90;;;;;;4916245;29;20048;-72
2022/04/10 02:35:53;;;;;;;9.35;4.85;;;3.10;99.90;;;;;;4915675;29;20053;-72
2022/04/10 02:38:29;;;;;;;8.68;5.22;;;3.10;99.90;;;;;;4929423;29;20067;-72
2022/04/10 02:44:21;;;;;;;10.13;5.05;;;3.00;99.90;;;;;;4914436;29;20059;-72
2022/04/10 02:46:57;;;;;;;11.02;5.78;;;3.00;99.90;;;;;;4911728;29;20401;-72
2022/04/10 02:49:33;;;;;;;14.00;6.13;;;3.00;99.90;;;;;;4910095;29;20515;-71
2022/04/10 02:52:09;;;;;;;11.60;6.78;;;3.00;99.90;;;;;;4914992;29;20048;-72
2022/04/10 02:54:45;;;;;;;12.63;6.53;;;2.90;99.90;;;;;;4915129;29;20562;-72
2022/04/10 03:00:48;;;;;;;8.02;5.03;;;2.90;99.90;;;;;;4915274;29;20408;-72
2022/04/10 03:03:25;;;;;;;9.57;5.97;;;2.90;99.90;;;;;;4915324;29;20072;-72
2022/04/10 03:06:01;;;;;;;10.20;6.57;;;2.90;99.90;;;;;;4927332;29;20067;-72
2022/04/10 03:11:58;;;;;;;13.18;6.32;;;2.80;99.90;;;;;;4914655;29;20043;-71
2022/04/10 03:14:35;;;;;;;8.32;5.63;;;2.70;99.90;;;;;;4914037;29;20112;-72
2022/04/10 03:17:11;;;;;;;11.05;5.90;;;2.70;99.90;;;;;;4915095;29;20488;-71
2022/04/10 03:19:47;;;;;;;9.38;6.28;;;2.70;99.90;;;;;;4915047;29;20080;-71
2022/04/10 03:25:53;;;;;;;10.88;5.30;;;2.60;99.90;;;;;;4908924;29;20412;-72
2022/04/10 03:28:29;;;;;;;9.60;6.28;;;2.50;99.90;;;;;;4900424;29;20044;-72
2022/04/10 03:31:05;;;;;;;13.65;5.60;;;2.50;99.90;;;;;;4913069;29;20052;-72
2022/04/10 03:37:05;;;;;;;11.75;5.93;;;2.50;99.90;;;;;;4913339;29;20888;-71
2022/04/10 03:39:41;;;;;;;10.48;5.38;;;2.40;99.90;;;;;;4912503;29;20056;-72
2022/04/10 03:42:17;;;;;;;9.80;5.55;;;2.40;99.90;;;;;;4913287;29;20068;-71
2022/04/10 03:44:44;;;;;;;10.60;6.72;;;2.40;99.90;;;;;;4903965;29;20488;-71
2022/04/10 03:47:20;;;;;;;7.75;5.22;;;2.40;99.90;;;;;;4913942;29;20048;-72
2022/04/10 03:53:20;;;;;;;10.98;5.47;;;2.30;99.90;;;;;;4914806;29;20082;-71
2022/04/10 03:55:56;;;;;;;10.00;5.90;;;2.20;99.90;;;;;;4912584;29;20408;-72
2022/04/10 03:58:32;;;;;;;9.25;5.57;;;2.20;99.90;;;;;;4913419;29;20059;-73
2022/04/10 04:01:09;;;;;;;7.00;5.30;;;2.20;99.90;;;;;;4914307;29;20055;-71
2022/04/10 04:07:06;;;;;;;;;;;2.10;99.90;;;;;;4904510;29;20055;-72
2022/04/10 04:09:41;;;;;;;12.95;5.38;;;2.10;99.90;;;;;;4913758;29;19922;-71
2022/04/10 04:12:18;;;;;;;8.65;4.60;;;2.10;99.90;;;;;;4913299;29;20052;-71
2022/04/10 04:14:53;;;;;;;8.95;5.63;;;2.00;99.90;;;;;;4914136;29;20067;-74
2022/04/10 04:17:29;;;;;;;8.13;5.00;;;2.00;99.90;;;;;;4913875;29;20052;-71
2022/04/10 04:20:06;;;;;;;9.10;5.50;;;2.00;99.90;;;;;;4913422;29;20055;-71
2022/04/10 04:22:36;;;;;;;12.23;6.05;;;2.00;99.90;;;;;;4921558;29;20043;-71
2022/04/10 04:25:12;;;;;;;9.63;5.90;;;1.90;99.90;;;;;;4896035;29;20511;-71
2022/04/10 04:27:48;;;;;;;10.50;5.05;;;1.90;99.90;;;;;;4913196;29;20063;-71
2022/04/10 04:30:25;;;;;;;7.25;5.07;;;1.90;99.90;;;;;;4913463;29;20055;-73
2022/04/10 04:33:01;;;;;;;9.82;5.45;;;1.90;99.90;;;;;;4909753;29;20048;-71
2022/04/10 04:35:37;;;;;;;11.57;4.80;;;1.90;99.90;;;;;;4907523;29;20052;-72
2022/04/10 04:38:13;;;;;;;7.88;4.93;;;1.90;99.90;;;;;;4910610;29;20044;-72
2022/04/10 04:40:49;;;;;;;8.85;5.07;;;1.90;99.90;;;;;;4911410;29;20056;-73
2022/04/10 04:46:47;;;;;;;7.90;5.90;;;1.90;99.90;;;;;;4911041;29;20384;-72
2022/04/10 04:49:26;;;;;;;9.63;5.13;;;1.80;99.90;;;;;;4913576;29;20052;-71
2022/04/10 04:52:07;;;;;;;8.48;4.95;;;1.80;99.90;;;;;;4917281;29;20506;-71
2022/04/10 04:54:44;;;;;;;6.93;4.57;;;1.80;99.90;;;;;;4918814;29;20377;-71
2022/04/10 05:00:47;;;;;;;9.95;5.20;;;1.70;99.90;;;;;;4918069;29;20056;-71
2022/04/10 05:03:26;;;;;;;10.45;5.13;;;1.70;99.90;;;;;;4918906;29;20048;-71
2022/04/10 05:06:02;;;;;;;8.25;4.80;;;1.70;99.90;;;;;;4917766;29;20048;-72
2022/04/10 05:12:09;;;;;;;7.43;4.78;;;1.70;99.90;;;;;;4916563;29;20048;-71
2022/04/10 05:14:45;;;;;;;8.95;5.05;;;1.70;99.90;;;;;;4916322;29;20048;-71
2022/04/10 05:18:05;;;;;;;7.93;5.10;;;1.60;99.90;;;;;;4918064;29;20504;-71
2022/04/10 05:20:57;;;;;;;6.68;4.88;;;1.60;99.90;;;;;;4917828;29;20059;-71
2022/04/10 05:23:33;;;;;;;8.20;4.95;;;1.60;99.90;;;;;;4918016;29;20099;-71
2022/04/10 05:26:10;;;;;;;8.18;4.72;;;1.60;99.90;;;;;;4915842;29;20040;-71
2022/04/10 05:28:46;;;;;;;10.85;6.28;;;1.60;99.90;;;;;;4917915;29;20055;-71
2022/04/10 05:31:22;;;;;;;8.07;4.78;;;1.60;99.90;;;;;;4913271;29;20044;-71
2022/04/10 05:34:17;;;;;;;7.97;4.88;;;1.60;99.90;;;;;;4918003;29;20060;-71
2022/04/10 05:36:52;;;;;;;8.05;4.82;;;1.60;99.90;;;;;;4916977;29;20052;-71
2022/04/10 05:39:28;;;;;;;10.50;4.97;;;1.60;99.90;;;;;;4916284;29;20070;-71
2022/04/10 05:42:08;;;;;;;8.10;5.05;;;1.70;99.90;;;;;;4917349;29;20052;-71
2022/04/10 05:44:44;;;;;;;7.10;4.80;;;1.70;99.90;;;;;;4915908;29;20072;-70
2022/04/10 05:47:20;;;;;;;11.45;6.35;;;1.70;99.90;;;;;;4916254;29;20063;-71
2022/04/10 05:49:55;;;;;;;6.80;4.55;;;1.70;99.90;;;;;;4917469;29;20056;-71
2022/04/10 05:55:53;;;;;;;10.07;5.28;;;1.80;99.90;;;;;;4915195;29;20488;-71
2022/04/10 05:58:29;;;;;;;7.43;4.82;;;1.80;99.90;;;;;;4916422;29;20040;-72
2022/04/10 06:01:05;;;;;;;11.00;5.18;;;1.90;99.90;;;;;;4914378;29;20055;-71
2022/04/10 06:03:41;;;;;;;7.95;4.93;;;1.90;99.90;;;;;;4915141;29;20167;-72
2022/04/10 06:06:18;;;;;;;10.38;5.93;;;1.90;99.90;;;;;;4896233;29;20048;-71
2022/04/10 06:12:19;;;;;;;11.52;6.78;;;2.10;99.90;;;;;;4902677;29;20055;-71
2022/04/10 06:14:55;;;;;;;10.52;5.40;;;2.20;99.90;;;;;;4917612;29;20102;-71
2022/04/10 06:17:31;;;;;;;7.75;4.80;;;2.20;99.90;;;;;;4915694;29;20043;-72
2022/04/10 06:23:39;;;;;;;10.27;5.80;;;2.40;99.90;;;;;;4904967;29;20080;-71
2022/04/10 06:26:15;;;;;;;10.02;6.13;;;2.50;99.90;;;;;;4918356;29;20529;-72
2022/04/10 06:28:53;;;;;;;10.23;5.15;;;2.70;99.90;;;;;;4916785;29;20048;-71
2022/04/10 06:34:58;;;;;;;;;;;2.90;99.90;;;;;;4917029;29;20131;-71
2022/04/10 06:37:35;;;;;;;8.02;5.10;;;3.00;99.90;;;;;;4916700;29;19930;-73
2022/04/10 06:40:11;;;;;;;9.77;5.57;;;3.10;99.90;;;;;;4914546;29;20482;-71
2022/04/10 06:46:10;;;;;;;12.45;5.80;;;3.30;99.90;;;;;;4908167;29;20100;-70
2022/04/10 06:48:46;;;;;;;8.55;5.13;;;3.40;99.90;;;;;;4916262;29;20488;-72
2022/04/10 06:51:22;;;;;;;10.98;5.50;;;3.50;99.90;;;;;;4915143;29;20047;-70
2022/04/10 06:54:00;;;;;;;11.20;5.78;;;3.60;99.90;;;;;;4915892;29;20179;-71
2022/04/10 07:00:07;;;;;;;12.02;5.78;;;3.80;99.90;;;;;;4916111;29;20079;-71
2022/04/10 07:02:43;;;;;;;9.60;6.03;;;4.00;99.90;;;;;;4914418;29;20500;-70
2022/04/10 07:05:19;;;;;;;9.68;7.00;;;4.10;99.90;;;;;;4929780;29;20123;-71
2022/04/10 07:07:55;;;;;;;9.75;6.80;;;4.20;99.90;;;;;;4915562;29;20104;-71
2022/04/10 07:10:32;;;;;;;10.13;7.50;;;4.40;99.90;;;;;;4915920;29;20081;-70
2022/04/10 07:13:08;;;;;;;12.07;6.47;;;4.50;99.90;;;;;;4915749;29;20051;-71
2022/04/10 07:19:06;;;;;;;11.50;6.95;;;4.70;99.90;;;;;;4915200;29;20103;-70
2022/04/10 07:25:23;;;;;;;12.10;6.75;;;5.00;99.90;;;;;;4914684;29;20048;-71
2022/04/10 07:28:00;;;;;;;16.75;7.10;;;5.20;99.90;;;;;;4910014;29;20056;-70
2022/04/10 07:30:36;;;;;;;12.15;7.43;;;5.30;99.90;;;;;;4905330;29;20048;-70
2022/04/10 07:33:12;;;;;;;10.70;7.32;;;5.50;99.90;;;;;;4914778;29;20052;-71
2022/04/10 07:35:48;;;;;;;11.55;7.35;;;5.60;99.90;;;;;;4915446;29;20052;-70
2022/04/10 07:38:24;;;;;;;9.77;6.03;;;5.70;99.90;;;;;;4914958;29;20303;-70
2022/04/10 07:41:00;;;;;;;8.38;5.82;;;5.90;99.90;;;;;;4915483;29;20044;-70
2022/04/10 07:47:26;;;;;;;11.13;6.93;;;6.40;99.90;;;;;;4905526;29;20055;-72
2022/04/10 07:50:03;;;;;;;9.85;6.30;;;6.60;99.90;;;;;;4907382;29;20437;-72
2022/04/10 07:56:04;;;;;;;9.38;5.72;;;6.80;99.90;;;;;;4911661;29;20052;-70
2022/04/10 07:58:40;;;;;;;9.60;6.20;;;6.90;99.90;;;;;;4916010;29;20048;-71
2022/04/10 08:01:16;;;;;;;13.85;8.75;;;7.10;99.90;;;;;;4915160;29;20052;-71
2022/04/10 08:03:53;;;;;;;14.02;8.45;;;7.20;99.90;;;;;;4914530;29;20923;-73
2022/04/10 08:06:29;;;;;;;14.27;8.52;;;7.30;99.90;;;;;;4914314;29;20484;-71
2022/04/10 08:09:05;;;;;;;7.78;6.32;;;7.30;99.90;;;;;;4913220;29;20056;-71
2022/04/10 08:15:08;;;;;;;10.13;5.35;;;7.50;99.90;;;;;;4914442;29;20056;-71
2022/04/10 08:17:44;;;;;;;11.05;6.30;;;7.50;99.90;;;;;;4926433;29;20530;-71
2022/04/10 08:20:12;;;;;;;10.05;5.40;;;7.70;99.90;;;;;;4914055;29;20056;-72
2022/04/10 08:22:49;;;;;;;8.77;5.00;;;7.80;99.90;;;;;;4921866;29;20047;-71
2022/04/10 08:25:26;;;;;;;12.48;6.45;;;7.90;99.90;;;;;;4911324;29;20072;-72
2022/04/10 08:28:02;;;;;;;8.68;4.60;;;8.00;99.90;;;;;;4914002;29;20108;-71
2022/04/10 08:30:40;;;;;;;11.90;4.85;;;8.30;99.90;;;;;;4916152;29;20043;-71
2022/04/10 08:36:33;;;;;;;8.32;3.78;;;8.60;99.90;;;;;;4924410;29;20047;-72
2022/04/10 08:39:08;;;;;;;11.15;3.53;;;8.80;99.90;;;;;;4923235;29;20051;-72
2022/04/10 08:41:46;;;;;;;356.80;272.30;;;8.90;97.10;;;;;;4913001;29;20060;-71
2022/04/10 08:44:22;;;;;;;140.30;95.88;;;9.00;95.90;;;;;;4914419;29;20709;-71
2022/04/10 08:46:49;;;;;;;15.95;10.10;;;9.10;93.90;;;;;;4887735;29;20060;-73
2022/04/10 08:53:00;;;;;;;8.52;3.88;;;9.40;91.30;;;;;;4923481;29;20067;-73
2022/04/10 08:55:36;;;;;;;4.88;2.97;;;9.50;91.50;;;;;;4914527;29;20071;-73
2022/04/10 08:58:12;;;;;;;6.88;2.40;;;9.50;90.90;;;;;;4920673;29;20043;-74
2022/04/10 09:00:48;;;;;;;3.72;2.03;;;9.60;84.30;;;;;;4925836;29;20056;-73
2022/04/10 09:07:09;;;;;;;5.05;2.10;;;9.80;81.30;;;;;;4923611;29;20108;-73
2022/04/10 09:10:06;;;;;;;3.30;1.55;;;9.90;80.20;;;;;;4917808;29;20056;-73
2022/04/10 09:12:45;;;;;;;9.07;1.83;;;10.10;71.30;;;;;;4903098;29;20510;-73
2022/04/10 09:15:21;;;;;;;5.47;2.45;;;10.30;74.00;;;;;;4923328;29;20111;-73
2022/04/10 09:21:33;;;;;;;5.07;1.88;;;10.40;76.50;;;;;;4921015;29;20067;-71
2022/04/10 09:24:13;;;;;;;6.05;2.85;;;10.60;72.50;;;;;;4934038;29;20051;-73
2022/04/10 09:30:18;;;;;;;4.45;2.13;;;10.60;70.50;;;;;;4913007;29;19935;-73
2022/04/10 09:32:55;;;;;;;5.03;1.73;;;10.70;70.80;;;;;;4911138;29;20497;-74
2022/04/10 09:35:42;;;;;;;3.97;1.85;;;10.70;68.10;;;;;;4913165;29;20134;-71
2022/04/10 09:38:29;;;;;;;6.40;2.10;;;10.90;67.40;;;;;;4912773;29;20059;-72
2022/04/10 09:44:22;;;;;;;7.40;1.90;;;10.90;63.60;;;;;;4917492;29;20059;-72
2022/04/10 09:46:59;;;;;;;5.85;1.45;;;10.90;67.60;;;;;;4916470;29;20116;-72
2022/04/10 09:49:40;;;;;;;4.57;2.08;;;11.00;67.10;;;;;;4922964;29;20506;-74
2022/04/10 09:55:43;;;;;;;10.68;4.78;;;11.10;64.80;;;;;;4916990;29;20427;-70
2022/04/10 09:58:19;;;;;;;5.03;2.42;;;11.10;66.30;;;;;;4918273;29;20484;-73
2022/04/10 10:00:56;;;;;;;3.38;1.85;;;11.20;64.20;;;;;;4923450;29;20503;-73
2022/04/10 10:03:36;;;;;;;3.78;1.80;;;11.20;65.60;;;;;;4906890;29;20059;-72
2022/04/10 10:09:40;;;;;;;30.15;22.30;;;11.30;65.70;;;;;;4917746;29;20071;-73
2022/04/10 10:12:16;;;;;;;5.30;3.72;;;11.50;65.20;;;;;;4916374;29;20055;-74
2022/04/10 10:14:53;;;;;;;3.97;1.90;;;11.50;61.60;;;;;;4914878;29;20409;-74
2022/04/10 10:21:00;;;;;;;6.38;1.75;;;11.50;60.80;;;;;;4929986;29;20048;-74
2022/04/10 10:23:36;;;;;;;7.78;1.80;;;11.40;62.50;;;;;;4920655;29;20056;-73
2022/04/10 10:30:07;;;;;;;5.20;1.50;;;11.50;63.80;;;;;;4908602;29;20052;-73
2022/04/10 10:32:50;;;;;;;5.03;2.15;;;11.50;66.00;;;;;;4916232;29;20047;-68
2022/04/10 10:35:31;;;;;;;3.53;1.98;;;11.60;65.90;;;;;;4921240;29;20483;-70
2022/04/10 10:38:00;;;;;;;9.13;3.20;;;11.70;65.00;;;;;;4915046;29;20051;-61
2022/04/10 10:40:45;;;;;;;6.53;3.22;;;11.80;67.30;;;;;;4917417;29;20060;-64
2022/04/10 10:43:24;;;;;;;33.75;10.88;;;11.80;63.10;;;;;;4913681;29;20064;-62
2022/04/10 10:46:00;;;;;;;5.50;2.92;;;12.10;67.60;;;;;;4913922;29;20068;-60
2022/04/10 10:49:11;;;;;;;11.50;6.03;;;12.20;66.40;;;;;;4919892;29;20056;-63
2022/04/10 10:51:41;;;;;;;14.98;9.13;;;12.30;66.80;;;;;;4914287;29;20127;-66
2022/04/10 10:54:11;;;;;;;4.32;2.33;;;12.30;64.20;;;;;;4892999;29;20435;-55
2022/04/10 10:56:58;;;;;;;7.28;2.65;;;12.10;62.00;;;;;;4910507;29;20150;-54
2022/04/10 10:59:32;;;;;;;5.47;2.35;;;12.20;65.00;;;;;;4914261;29;20074;-52
2022/04/10 11:02:17;;;;;;;7.90;2.47;;;12.30;67.40;;;;;;4911370;29;20985;-55
2022/04/10 11:05:35;;;;;;;6.13;2.13;;;12.30;66.10;;;;;;4921596;29;20115;-55
2022/04/10 11:08:40;;;;;;;15.93;9.68;;;12.50;62.60;;;;;;4871963;29;20406;-68
2022/04/10 11:11:07;;;;;;;4.97;2.22;;;12.60;60.60;;;;;;4871310;29;20551;-70
2022/04/10 11:13:46;;;;;;;4.97;1.85;;;12.60;63.60;;;;;;4849888;29;20166;-70
2022/04/10 11:17:09;;;;;;;37.88;3.35;;;12.70;62.60;;;;;;4866118;29;20049;-70
2022/04/10 11:19:36;;;;;;;3.42;1.60;;;12.60;58.80;;;;;;4868798;29;20056;-71
2022/04/10 11:22:04;;;;;;;10.00;2.30;;;12.60;61.70;;;;;;4857028;29;20117;-70
2022/04/10 11:24:31;;;;;;;8.05;1.83;;;12.70;63.30;;;;;;4858953;29;20060;-71
2022/04/10 11:27:50;;;;;;;11.50;2.30;;;12.80;60.00;;;;;;4853447;29;20053;-69
2022/04/10 11:30:33;;;;;;;7.85;3.15;;;12.70;56.90;;;;;;4873379;29;20045;-69
2022/04/10 11:33:09;;;;;;;8.32;2.35;;;12.80;62.80;;;;;;4865136;29;20065;-71
2022/04/10 11:36:15;;;;;;;5.90;2.00;;;12.90;61.20;;;;;;4843828;29;20085;-70
2022/04/10 11:38:42;;;;;;;5.57;1.70;;;12.90;58.20;;;;;;4843628;29;20061;-72
2022/04/10 11:41:11;;;;;;;4.72;1.90;;;12.90;61.30;;;;;;4854769;29;20053;-72
2022/04/10 11:43:38;;;;;;;5.30;2.13;;;13.00;62.50;;;;;;4853585;29;20057;-71
2022/04/10 11:46:30;;;;;;;8.60;1.98;;;13.00;60.40;;;;;;4898984;29;20107;-71
2022/04/10 11:49:06;;;;;;;3.90;2.22;;;13.20;58.80;;;;;;4919117;29;20087;-72
2022/04/10 11:52:07;;;;;;;20.38;4.03;;;13.20;62.70;;;;;;4921262;29;20055;-71
2022/04/10 11:54:43;;;;;;;6.72;2.53;;;13.40;63.80;;;;;;4920069;29;20111;-71
2022/04/10 12:00:45;;;;;;;10.15;3.20;;;13.40;62.00;;;;;;4922737;29;20070;-64
2022/04/10 12:03:26;;;;;;;4.28;2.60;;;13.50;63.90;;;;;;4913298;29;20480;-59
2022/04/10 12:06:03;;;;;;;6.75;3.03;;;13.60;66.30;;;;;;4906607;29;20055;-66
2022/04/10 12:12:02;;;;;;;6.03;3.70;;;13.70;66.80;;;;;;4909921;29;20052;-63
2022/04/10 12:14:38;;;;;;;8.02;2.63;;;13.70;65.20;;;;;;4912541;29;20055;-71
2022/04/10 12:17:25;;;;;;;3.63;2.22;;;13.60;63.60;;;;;;4914587;29;20075;-66
2022/04/10 12:23:26;;;;;;;9.40;2.92;;;13.40;62.70;;;;;;4915606;29;20056;-81
2022/04/10 12:26:02;;;;;;;6.57;3.10;;;13.50;68.30;;;;;;4924844;29;20054;-66
2022/04/10 12:28:40;;;;;;;5.78;2.55;;;13.60;66.80;;;;;;4936655;29;20060;-82
2022/04/10 12:31:18;;;;;;;6.32;2.13;;;13.70;65.10;;;;;;4917510;29;20047;-81
2022/04/10 12:33:55;;;;;;;6.65;2.35;;;13.70;65.80;;;;;;4911157;29;20044;-70
2022/04/10 12:36:25;;;;;;;5.10;2.65;;;13.80;65.70;;;;;;4914563;29;20052;-69
2022/04/10 12:39:29;;;;;;;4.03;2.15;;;13.80;67.30;;;;;;4913182;29;20056;-72
2022/04/10 12:42:09;;;;;;;4.43;2.17;;;13.90;67.60;;;;;;4919853;29;20051;-71
2022/04/10 12:44:57;;;;;;;5.65;2.25;;;13.90;64.20;;;;;;4917902;29;20060;-70
2022/04/10 12:47:41;;;;;;;3.47;1.70;;;13.90;64.70;;;;;;4903909;29;20055;-71
2022/04/10 12:50:13;;;;;;;4.70;2.45;;;13.80;65.60;;;;;;4905638;29;20393;-69
2022/04/10 12:52:41;;;;;;;9.63;4.47;;;14.00;65.20;;;;;;4912250;29;20395;-66
2022/04/10 12:55:27;;;;;;;5.82;3.28;;;14.10;66.80;;;;;;4895854;29;20057;-67
2022/04/10 12:58:04;;;;;;;8.63;3.90;;;14.30;65.00;;;;;;4888351;29;20092;-69
2022/04/10 13:00:44;;;;;;;5.00;2.55;;;14.30;63.60;;;;;;4911135;29;20048;-68
2022/04/10 13:03:32;;;;;;;5.55;2.53;;;14.20;63.00;;;;;;4915131;29;20056;-71
2022/04/10 13:06:08;;;;;;;6.00;2.50;;;13.90;62.90;;;;;;4915163;29;20107;-80
2022/04/10 13:12:34;;;;;;;4.65;1.90;;;14.10;65.70;;;;;;4911566;29;20040;-63
2022/04/10 13:15:11;;;;;;;4.93;2.40;;;14.20;66.70;;;;;;4902439;29;20056;-64
2022/04/10 13:17:47;;;;;;;21.83;15.60;;;14.30;64.10;;;;;;4908952;29;20063;-64
2022/04/10 13:20:24;;;;;;;6.45;3.50;;;14.40;66.70;;;;;;4914910;29;20048;-69
2022/04/10 13:26:35;;;;;;;3.75;2.20;;;14.50;64.00;;;;;;4905253;29;20060;-70
2022/04/10 13:29:11;;;;;;;8.02;3.20;;;14.40;64.50;;;;;;4921519;29;20435;-69
2022/04/10 13:31:47;;;;;;;5.57;2.42;;;14.40;64.90;;;;;;4925006;29;20461;-69
2022/04/10 13:34:24;;;;;;;8.00;2.90;;;14.20;63.90;;;;;;4917734;29;20051;-69
2022/04/10 13:36:51;;;;;;;5.43;3.00;;;14.10;66.70;;;;;;4916876;29;20063;-69
2022/04/10 13:39:46;;;;;;;6.35;2.13;;;14.00;65.80;;;;;;4916431;29;20055;-69
2022/04/10 13:42:23;;;;;;;6.00;2.88;;;14.10;64.80;;;;;;4898500;29;20052;-68
2022/04/10 13:44:51;;;;;;;7.60;3.10;;;14.00;65.70;;;;;;4912697;29;20052;-68
2022/04/10 13:47:18;;;;;;;6.50;2.22;;;14.00;65.10;;;;;;4914824;29;20064;-69
2022/04/10 13:49:54;;;;;;;5.03;2.65;;;14.10;65.20;;;;;;4915350;29;20049;-68
2022/04/10 13:52:31;;;;;;;5.80;2.78;;;14.20;62.70;;;;;;4916676;29;20087;-69
2022/04/10 13:55:08;;;;;;;5.45;2.22;;;14.20;63.10;;;;;;4921551;29;20132;-73
2022/04/10 13:57:44;;;;;;;6.57;2.28;;;14.20;64.40;;;;;;4925877;29;20048;-69
2022/04/10 14:03:42;;;;;;;5.45;3.15;;;14.00;62.70;;;;;;4925873;29;20437;-69
2022/04/10 14:06:18;;;;;;;4.43;3.05;;;14.10;63.90;;;;;;4915050;29;20043;-69
2022/04/10 14:08:58;;;;;;;5.68;2.90;;;14.10;62.30;;;;;;4916858;29;20559;-69
2022/04/10 14:11:34;;;;;;;5.70;2.83;;;14.10;61.80;;;;;;4914019;29;20066;-70
2022/04/10 14:17:35;;;;;;;7.10;3.33;;;14.20;63.20;;;;;;4923416;29;20056;-69
2022/04/10 14:20:02;;;;;;;4.43;2.20;;;14.40;63.20;;;;;;4902706;29;20052;-70
2022/04/10 14:22:29;;;;;;;6.93;2.08;;;14.40;63.30;;;;;;4915283;29;20121;-70
2022/04/10 14:24:56;;;;;;;3.67;1.90;;;14.40;63.70;;;;;;4899622;29;20064;-69
2022/04/10 14:27:23;;;;;;;5.07;1.95;;;14.40;62.20;;;;;;4905143;29;20048;-70
2022/04/10 14:29:50;;;;;;;5.22;2.10;;;14.40;64.10;;;;;;4906393;29;20092;-69
2022/04/10 14:32:17;;;;;;;7.78;1.80;;;14.40;62.40;;;;;;4916527;29;20059;-69
2022/04/10 14:34:43;;;;;;;4.25;1.88;;;14.30;62.10;;;;;;4916536;29;20051;-71
2022/04/10 14:37:10;;;;;;;12.80;2.72;;;14.20;60.70;;;;;;4899338;29;20579;-69
2022/04/10 14:39:37;;;;;;;4.97;2.85;;;14.10;62.40;;;;;;4914725;29;20496;-70
2022/04/10 14:42:04;;;;;;;4.90;2.65;;;14.10;62.30;;;;;;4914861;29;20056;-69
2022/04/10 14:44:31;;;;;;;4.35;1.90;;;14.20;62.20;;;;;;4916776;29;20059;-70
2022/04/10 14:46:58;;;;;;;5.30;1.98;;;14.30;60.30;;;;;;4915362;29;20414;-70
2022/04/10 14:49:25;;;;;;;5.57;2.03;;;14.30;63.20;;;;;;4915205;29;20056;-70
2022/04/10 14:51:52;;;;;;;6.50;2.30;;;14.40;63.10;;;;;;4915460;29;20059;-70
2022/04/10 14:54:19;;;;;;;6.10;2.08;;;14.40;61.40;;;;;;4912315;29;20051;-70
2022/04/10 14:56:51;;;;;;;4.10;1.58;;;14.40;61.00;;;;;;4934150;29;20055;-70
2022/04/10 14:59:18;;;;;;;9.40;1.73;;;14.40;61.20;;;;;;4935429;29;20047;-69
2022/04/10 15:01:45;;;;;;;3.88;1.90;;;14.30;62.10;;;;;;4912568;29;20386;-68
2022/04/10 15:04:12;;;;;;;36.30;28.70;;;14.10;61.00;;;;;;4895895;29;20120;-69
2022/04/10 15:06:40;;;;;;;9.25;5.20;;;14.10;61.00;;;;;;4897510;29;20159;-69
2022/04/10 15:09:07;;;;;;;6.95;2.30;;;14.10;61.40;;;;;;4896886;29;20457;-69
2022/04/10 15:11:34;;;;;;;4.82;2.15;;;14.00;61.40;;;;;;4897036;29;20079;-69
2022/04/10 15:14:01;;;;;;;5.28;2.75;;;14.10;62.20;;;;;;4894335;29;20045;-69
2022/04/10 15:16:28;;;;;;;4.72;2.03;;;14.00;61.70;;;;;;4904165;29;20048;-70
2022/04/10 15:18:55;;;;;;;5.45;1.85;;;14.00;61.80;;;;;;4885184;29;20055;-69
2022/04/10 15:21:22;;;;;;;5.38;1.92;;;13.90;60.50;;;;;;4902489;29;20047;-70
2022/04/10 15:23:51;;;;;;;4.10;1.75;;;13.80;61.10;;;;;;4915260;29;20048;-69
2022/04/10 15:26:17;;;;;;;6.07;2.10;;;13.70;61.40;;;;;;4914108;29;20048;-69
2022/04/10 15:28:45;;;;;;;5.28;1.88;;;13.70;61.50;;;;;;4913326;29;20091;-69
2022/04/10 15:31:12;;;;;;;3.95;1.95;;;13.60;60.90;;;;;;4913631;29;20470;-68
2022/04/10 15:33:39;;;;;;;5.10;1.95;;;13.50;61.10;;;;;;4913621;29;20052;-71
2022/04/10 15:36:06;;;;;;;7.57;2.15;;;13.40;60.70;;;;;;4913842;29;20048;-73
2022/04/10 15:38:33;;;;;;;7.40;1.67;;;13.40;61.30;;;;;;4920446;29;20082;-71
2022/04/10 15:41:03;;;;;;;6.00;2.20;;;13.40;61.70;;;;;;4914812;29;20071;-71
2022/04/10 15:43:31;;;;;;;8.30;2.45;;;13.40;61.70;;;;;;4914641;29;20052;-70
2022/04/10 15:45:58;;;;;;;5.72;1.80;;;13.40;61.10;;;;;;4913517;29;20063;-70
2022/04/10 15:48:25;;;;;;;4.80;1.85;;;13.40;60.90;;;;;;4912818;29;20051;-71
2022/04/10 15:50:52;;;;;;;6.72;2.60;;;13.50;61.00;;;;;;4914782;29;20052;-71
2022/04/10 15:53:19;;;;;;;5.15;1.65;;;13.50;60.40;;;;;;4913517;29;20052;-73
2022/04/10 15:55:46;;;;;;;3.60;1.42;;;13.50;60.80;;;;;;4911476;29;20048;-71
2022/04/10 15:58:17;;;;;;;4.53;2.20;;;13.50;61.10;;;;;;4912242;29;20056;-70
2022/04/10 16:00:44;;;;;;;5.00;2.00;;;13.60;60.80;;;;;;4915815;29;20464;-71
2022/04/10 16:03:12;;;;;;;4.95;1.88;;;13.50;60.60;;;;;;4898873;29;20088;-68